Time;durP1;ratioP1;P1;durP2;ratioP2;P2;SDS_P1;SDS_P2;PMS_P1;PMS_P2;Temp;Humidity;BMP_temperature;BMP_pressure;BME280_temperature;BME280_humidity;BME280_pressure;Samples;Min_cycle;Max_cycle;Signal;HPM_P1;HPM_P2
2022/08/06 00:01:37;;;;;;;10.75;5.07;;;;;;;19.86;84.92;97149.94;5019094;28;20472;-83
2022/08/06 00:04:03;;;;;;;5.35;4.55;;;;;;;19.93;85.11;97147.44;5027356;28;20049;-83
2022/08/06 00:06:29;;;;;;;7.00;4.47;;;;;;;19.88;85.44;97142.50;5036985;28;20492;-83
2022/08/06 00:08:55;;;;;;;8.88;5.20;;;;;;;20.01;85.19;97159.19;5027206;28;20097;-83
2022/08/06 00:11:20;;;;;;;8.80;5.20;;;;;;;19.87;85.02;97146.19;5016740;28;20025;-83
2022/08/06 00:13:46;;;;;;;7.95;5.30;;;;;;;19.82;85.93;97154.00;5014759;28;20418;-83
2022/08/06 00:16:11;;;;;;;6.72;5.05;;;;;;;19.87;86.21;97165.22;5030567;28;20033;-83
2022/08/06 00:18:37;;;;;;;6.45;5.25;;;;;;;19.82;86.72;97161.28;5030271;28;20025;-82
2022/08/06 00:21:03;;;;;;;8.65;4.90;;;;;;;19.68;87.41;97151.91;5030006;28;20140;-80
2022/08/06 00:23:28;;;;;;;7.13;5.03;;;;;;;19.73;87.24;97163.09;5041409;28;20025;-80
2022/08/06 00:25:54;;;;;;;6.70;5.47;;;;;;;19.68;87.09;97162.75;5046224;28;20021;-80
2022/08/06 00:28:24;;;;;;;11.00;5.28;;;;;;;19.69;87.27;97166.28;5046774;28;20078;-80
2022/08/06 00:30:50;;;;;;;8.93;5.70;;;;;;;19.74;86.15;97169.41;5029635;28;20057;-80
2022/08/06 00:33:15;;;;;;;7.53;5.13;;;;;;;19.62;86.90;97155.25;5047856;28;20064;-80
2022/08/06 00:35:41;;;;;;;6.55;5.43;;;;;;;19.67;87.57;97168.31;5029837;28;20502;-80
2022/08/06 00:38:07;;;;;;;9.00;5.40;;;;;;;19.58;87.66;97159.28;5046368;28;20028;-80
2022/08/06 00:40:32;;;;;;;7.65;5.43;;;;;;;19.67;86.81;97166.47;5047836;28;20021;-81
2022/08/06 00:43:00;;;;;;;9.50;5.25;;;;;;;19.57;87.01;97165.72;5029629;28;20036;-80
2022/08/06 00:45:25;;;;;;;13.13;5.05;;;;;;;19.63;87.29;97169.66;5029609;28;20025;-81
2022/08/06 00:47:52;;;;;;;8.93;5.28;;;;;;;19.54;87.23;97171.47;5046150;28;20021;-80
2022/08/06 00:50:18;;;;;;;6.30;5.05;;;;;;;19.55;87.53;97170.47;5028317;28;20032;-81
2022/08/06 00:52:45;;;;;;;8.88;5.45;;;;;;;19.51;88.23;97162.78;5038442;28;20029;-86
2022/08/06 00:55:12;;;;;;;6.10;5.07;;;;;;;19.55;88.13;97175.88;5029651;28;20022;-82
2022/08/06 00:57:37;;;;;;;10.57;5.32;;;;;;;19.61;87.94;97168.97;5035287;28;20044;-84
2022/08/06 01:00:05;;;;;;;15.38;5.80;;;;;;;19.68;87.51;97165.47;5021214;28;20065;-83
2022/08/06 01:02:30;;;;;;;6.57;4.80;;;;;;;19.72;87.14;97172.25;5031545;28;20450;-84
2022/08/06 01:04:56;;;;;;;8.13;5.32;;;;;;;19.75;86.75;97169.22;5033472;28;20101;-83
2022/08/06 01:07:22;;;;;;;11.15;5.40;;;;;;;19.78;86.50;97184.34;5027277;28;20104;-83
2022/08/06 01:09:48;;;;;;;10.32;5.80;;;;;;;19.76;86.96;97186.34;5034872;28;20021;-82
2022/08/06 01:12:15;;;;;;;10.90;6.00;;;;;;;19.85;86.41;97188.09;5026878;28;20093;-83
2022/08/06 01:14:40;;;;;;;8.98;5.35;;;;;;;19.89;86.07;97186.78;5010113;28;20109;-82
2022/08/06 01:17:30;;;;;;;8.40;5.80;;;;;;;19.84;86.89;97184.53;5038041;28;20057;-83
2022/08/06 01:20:15;;;;;;;7.05;5.57;;;;;;;19.81;87.94;97176.72;5035331;28;20101;-82
2022/08/06 01:23:06;;;;;;;8.13;5.65;;;;;;;19.80;89.64;97183.19;5026208;28;20407;-80
2022/08/06 01:25:59;;;;;;;10.20;5.60;;;;;;;19.77;89.53;97180.78;5025827;28;20491;-80
2022/08/06 01:28:26;;;;;;;;;;;;;;;19.72;89.64;97176.84;5051021;28;20065;-80
2022/08/06 01:31:14;;;;;;;9.52;5.78;;;;;;;19.58;90.69;97175.56;5049096;28;19943;-80
2022/08/06 01:33:52;;;;;;;8.88;6.40;;;;;;;19.45;91.36;97170.56;5049344;28;20033;-79
2022/08/06 01:36:40;;;;;;;9.25;6.22;;;;;;;19.30;93.18;97160.41;5045252;28;20053;-80
2022/08/06 01:39:06;;;;;;;8.45;6.13;;;;;;;19.23;93.87;97154.75;5013094;28;20022;-80
2022/08/06 01:41:45;;;;;;;8.52;5.68;;;;;;;19.26;94.26;97154.44;5008387;28;20043;-83
2022/08/06 01:44:16;;;;;;;10.27;5.55;;;;;;;19.28;94.70;97155.16;5033348;28;20029;-83
2022/08/06 01:46:49;;;;;;;11.87;6.23;;;;;;;19.22;95.19;97153.09;5045216;28;20030;-83
2022/08/06 01:49:23;;;;;;;7.47;6.15;;;;;;;19.16;95.92;97152.88;5047011;28;20021;-82
2022/08/06 01:51:50;;;;;;;10.88;5.40;;;;;;;19.22;95.58;97146.81;5036068;28;20029;-83
2022/08/06 01:54:16;;;;;;;7.07;5.78;;;;;;;19.15;96.31;97151.16;5029659;28;20030;-82
2022/08/06 01:56:45;;;;;;;8.15;5.82;;;;;;;19.15;96.72;97146.59;5021368;28;20029;-82
2022/08/06 01:59:13;;;;;;;6.40;5.60;;;;;;;19.19;95.70;97141.69;5029939;28;20033;-82
2022/08/06 02:01:39;;;;;;;9.23;5.28;;;;;;;19.19;95.52;97144.41;5021101;28;20094;-82
2022/08/06 02:04:06;;;;;;;6.80;5.57;;;;;;;19.08;96.57;97140.06;5029015;28;20061;-82
2022/08/06 02:06:32;;;;;;;12.45;5.68;;;;;;;19.09;97.10;97147.22;5012610;28;20072;-83
2022/08/06 02:09:05;;;;;;;7.28;5.78;;;;;;;18.98;97.53;97133.88;5013140;28;20026;-83
2022/08/06 02:11:32;;;;;;;10.25;6.22;;;;;;;19.00;97.16;97133.75;5012944;28;20033;-83
2022/08/06 02:13:59;;;;;;;9.68;5.93;;;;;;;19.00;97.43;97144.59;5013459;28;20021;-84
2022/08/06 02:16:27;;;;;;;10.10;6.13;;;;;;;18.87;98.42;97132.28;5012234;28;20029;-83
2022/08/06 02:18:53;;;;;;;9.27;6.68;;;;;;;18.82;98.55;97122.94;5017812;28;20111;-84
2022/08/06 02:21:22;;;;;;;9.07;6.25;;;;;;;18.82;98.92;97136.50;5015859;28;20025;-83
2022/08/06 02:23:48;;;;;;;9.88;6.82;;;;;;;18.84;98.82;97137.16;5032904;28;20183;-83
2022/08/06 02:26:14;;;;;;;11.80;6.75;;;;;;;18.79;98.57;97124.09;5032684;28;20096;-83
2022/08/06 02:28:41;;;;;;;8.75;6.22;;;;;;;18.77;99.42;97133.38;5024101;28;20028;-83
2022/08/06 02:31:07;;;;;;;7.45;6.10;;;;;;;18.74;98.41;97131.84;5034072;28;20030;-83
2022/08/06 02:33:32;;;;;;;9.50;6.03;;;;;;;18.77;98.70;97136.09;5029274;28;20037;-83
2022/08/06 02:36:04;;;;;;;6.95;5.85;;;;;;;18.73;98.83;97138.28;5013265;28;20397;-82
2022/08/06 02:38:37;;;;;;;9.40;5.82;;;;;;;18.64;100.00;97135.66;5012068;28;20420;-82
2022/08/06 02:41:31;;;;;;;11.35;6.43;;;;;;;18.64;100.00;97136.47;5020844;28;20037;-82
2022/08/06 02:44:03;;;;;;;15.90;8.77;;;;;;;18.63;100.00;97134.78;5026256;28;20061;-83
2022/08/06 02:46:35;;;;;;;24.48;10.25;;;;;;;18.66;100.00;97139.03;5020698;28;20097;-83
2022/08/06 02:49:14;;;;;;;12.10;7.63;;;;;;;18.67;100.00;97143.47;5029160;28;20120;-83
2022/08/06 02:51:44;;;;;;;18.58;9.27;;;;;;;18.62;100.00;97143.06;5028680;28;20076;-83
2022/08/06 02:54:38;;;;;;;9.52;7.00;;;;;;;18.63;100.00;97137.50;5027140;28;20484;-83
2022/08/06 02:57:06;;;;;;;10.90;7.28;;;;;;;18.53;100.00;97142.13;5032285;28;20120;-83
2022/08/06 02:59:36;;;;;;;9.85;6.70;;;;;;;18.59;100.00;97149.63;5023604;28;20502;-83
2022/08/06 03:02:02;;;;;;;20.75;6.78;;;;;;;18.59;100.00;97140.66;5023955;28;20044;-82
2022/08/06 03:04:30;;;;;;;8.82;6.80;;;;;;;18.73;100.00;97149.13;5039630;28;20136;-82
2022/08/06 03:06:58;;;;;;;13.32;6.70;;;;;;;18.76;100.00;97148.81;5028463;28;20485;-81
2022/08/06 03:09:24;;;;;;;9.77;7.00;;;;;;;18.85;100.00;97139.75;5011586;28;20030;-81
2022/08/06 03:11:50;;;;;;;10.52;6.30;;;;;;;18.83;100.00;97147.16;5022816;28;20025;-81
2022/08/06 03:14:17;;;;;;;9.23;6.43;;;;;;;18.88;100.00;97150.28;5047718;28;20386;-81
2022/08/06 03:16:43;;;;;;;9.52;7.18;;;;;;;18.84;100.00;97140.75;5020560;28;20034;-81
2022/08/06 03:19:09;;;;;;;16.10;7.97;;;;;;;18.86;100.00;97145.97;5027511;28;20021;-81
2022/08/06 03:21:35;;;;;;;12.80;8.02;;;;;;;18.87;100.00;97148.56;5036790;28;20524;-81
2022/08/06 03:24:02;;;;;;;11.45;7.07;;;;;;;18.84;100.00;97157.00;5035278;28;20468;-81
2022/08/06 03:26:29;;;;;;;15.20;7.07;;;;;;;18.85;100.00;97161.41;5019343;28;20124;-83
2022/08/06 03:28:56;;;;;;;15.98;6.78;;;;;;;18.83;100.00;97154.44;5028052;28;20034;-83
2022/08/06 03:31:25;;;;;;;10.38;7.55;;;;;;;18.68;100.00;97151.41;5026652;28;20036;-82
2022/08/06 03:33:52;;;;;;;12.52;7.43;;;;;;;18.63;100.00;97159.16;5036716;28;20408;-82
2022/08/06 03:36:18;;;;;;;9.70;6.55;;;;;;;18.77;100.00;97161.31;5025786;28;20519;-83
2022/08/06 03:39:01;;;;;;;11.00;6.97;;;;;;;18.72;100.00;97163.66;5054239;27;20465;-82
2022/08/06 03:41:28;;;;;;;12.90;7.38;;;;;;;18.71;100.00;97159.25;5027750;28;20030;-83
2022/08/06 03:43:54;;;;;;;16.33;6.93;;;;;;;18.70;100.00;97162.94;5011043;28;20041;-83
2022/08/06 03:46:30;;;;;;;15.98;7.65;;;;;;;18.72;100.00;97158.25;5028248;28;20025;-84
2022/08/06 03:48:59;;;;;;;9.85;6.60;;;;;;;18.79;100.00;97161.19;5027783;28;20033;-83
2022/08/06 03:51:27;;;;;;;15.88;6.50;;;;;;;18.73;100.00;97168.09;5034447;28;20169;-83
2022/08/06 03:53:53;;;;;;;10.65;7.15;;;;;;;18.74;100.00;97161.63;5029055;28;20033;-83
2022/08/06 03:56:24;;;;;;;11.57;6.65;;;;;;;18.77;100.00;97166.75;5011309;28;20511;-83
2022/08/06 03:58:53;;;;;;;9.57;6.88;;;;;;;18.78;100.00;97164.91;5027397;28;20056;-84
2022/08/06 04:01:22;;;;;;;15.90;7.43;;;;;;;18.87;100.00;97163.97;5011034;28;20476;-83
2022/08/06 04:03:48;;;;;;;15.35;7.13;;;;;;;18.82;100.00;97159.03;5043790;28;20052;-83
2022/08/06 04:06:14;;;;;;;14.68;7.72;;;;;;;18.87;100.00;97158.53;5010920;28;20408;-83
2022/08/06 04:08:40;;;;;;;15.90;7.65;;;;;;;18.91;100.00;97171.66;5019144;28;20155;-83
2022/08/06 04:11:07;;;;;;;16.40;7.97;;;;;;;18.95;100.00;97172.16;5052358;27;20022;-83
2022/08/06 04:13:32;;;;;;;20.55;8.55;;;;;;;18.85;100.00;97166.84;5010872;28;20025;-83
2022/08/06 04:15:58;;;;;;;15.80;7.97;;;;;;;18.75;100.00;97171.47;5021274;28;20040;-83
2022/08/06 04:18:43;;;;;;;16.73;8.50;;;;;;;18.85;100.00;97177.69;5030749;28;20029;-83
2022/08/06 04:21:12;;;;;;;24.15;9.05;;;;;;;18.91;100.00;97173.50;5003286;28;20022;-83
2022/08/06 04:23:38;;;;;;;20.60;8.07;;;;;;;18.89;100.00;97179.06;5019329;28;20433;-84
2022/08/06 04:26:07;;;;;;;16.75;7.38;;;;;;;18.95;100.00;97183.84;5035769;28;20109;-84
2022/08/06 04:28:35;;;;;;;17.10;8.32;;;;;;;19.18;100.00;97183.38;5042170;28;20372;-84
2022/08/06 04:31:01;;;;;;;11.55;7.60;;;;;;;19.91;95.17;97190.16;5038439;28;20025;-84
2022/08/06 04:33:27;;;;;;;10.57;8.20;;;;;;;20.72;88.96;97194.09;5047085;28;20021;-84
2022/08/06 04:35:53;;;;;;;16.55;9.95;;;;;;;20.61;87.08;97197.09;5020753;28;20025;-83
2022/08/06 04:38:21;;;;;;;12.90;7.53;;;;;;;20.40;88.36;97196.69;5010390;28;20022;-83
2022/08/06 04:40:47;;;;;;;14.52;7.75;;;;;;;20.28;89.10;97195.31;5010841;28;20017;-83
2022/08/06 04:43:13;;;;;;;13.82;7.72;;;;;;;20.16;89.70;97196.56;5017242;28;20029;-83
2022/08/06 04:45:41;;;;;;;22.35;8.00;;;;;;;20.09;91.42;97209.13;5027257;28;20021;-84
2022/08/06 04:48:11;;;;;;;13.95;8.32;;;;;;;20.08;91.38;97196.56;5020901;28;20025;-82
2022/08/06 04:50:38;;;;;;;12.07;7.35;;;;;;;20.18;90.78;97206.25;5025667;28;20082;-83
2022/08/06 04:53:09;;;;;;;15.82;8.48;;;;;;;20.25;90.44;97210.03;5026699;28;20040;-82
2022/08/06 04:55:35;;;;;;;19.27;8.75;;;;;;;20.32;89.96;97210.28;5027062;28;20462;-83
2022/08/06 04:58:02;;;;;;;11.80;8.38;;;;;;;20.36;89.30;97208.94;5010315;28;20037;-82
2022/08/06 05:00:28;;;;;;;17.33;8.80;;;;;;;20.49;89.45;97212.03;5032997;28;20527;-84
2022/08/06 05:02:54;;;;;;;11.98;7.97;;;;;;;20.56;88.63;97207.63;5041925;28;20029;-84
2022/08/06 05:05:20;;;;;;;24.77;9.73;;;;;;;20.55;88.90;97217.66;5021403;28;20052;-84
2022/08/06 05:07:46;;;;;;;18.45;8.20;;;;;;;20.60;88.22;97209.00;5036314;28;20025;-84
2022/08/06 05:10:12;;;;;;;17.38;8.13;;;;;;;20.76;87.06;97200.06;5021110;28;20036;-83
2022/08/06 05:12:41;;;;;;;14.90;7.85;;;;;;;20.95;85.68;97219.63;5013891;28;20553;-84
2022/08/06 05:15:09;;;;;;;15.82;8.05;;;;;;;21.02;85.63;97217.94;5013432;28;20502;-84
2022/08/06 05:17:41;;;;;;;12.82;8.15;;;;;;;21.07;84.63;97210.13;5030042;28;20089;-84
2022/08/06 05:20:13;;;;;;;26.67;9.82;;;;;;;21.37;83.11;97205.06;5013112;28;20022;-83
2022/08/06 05:22:39;;;;;;;24.65;8.60;;;;;;;21.52;81.56;97204.22;5030123;28;20112;-83
2022/08/06 05:25:09;;;;;;;31.25;10.25;;;;;;;21.76;81.01;97211.50;5013607;28;20037;-84
2022/08/06 05:27:34;;;;;;;13.95;7.90;;;;;;;21.98;79.72;97210.81;5043778;28;20036;-85
2022/08/06 05:30:02;;;;;;;19.73;8.73;;;;;;;22.17;78.65;97206.00;5049587;28;20482;-85
2022/08/06 05:32:28;;;;;;;18.25;8.77;;;;;;;23.20;74.43;97217.41;5033011;28;20044;-82
2022/08/06 05:34:53;;;;;;;21.67;11.23;;;;;;;24.97;67.84;97205.66;5023555;28;20395;-82
2022/08/06 05:37:19;;;;;;;19.67;8.20;;;;;;;27.20;59.31;97195.47;5032842;28;20561;-83
2022/08/06 05:39:45;;;;;;;15.10;7.25;;;;;;;28.51;54.03;97179.84;5027904;28;20058;-83
2022/08/06 05:42:10;;;;;;;18.48;8.50;;;;;;;29.44;51.18;97192.16;5012969;28;20029;-82
2022/08/06 05:44:36;;;;;;;24.45;8.77;;;;;;;31.24;46.40;97178.06;5014254;28;20030;-83
2022/08/06 05:47:05;;;;;;;14.00;8.18;;;;;;;32.39;43.06;97175.81;5013257;28;20040;-85
2022/08/06 05:49:51;;;;;;;17.05;8.18;;;;;;;33.13;40.87;97172.22;5040156;28;20411;-85
2022/08/06 05:52:24;;;;;;;11.38;8.13;;;;;;;33.82;38.97;97148.84;5022662;28;20033;-83
2022/08/06 05:54:59;;;;;;;10.70;7.57;;;;;;;31.88;41.52;97165.38;5012777;28;20022;-83
2022/08/06 05:57:56;;;;;;;13.02;8.68;;;;;;;30.44;44.38;97187.53;5030994;28;20035;-84
2022/08/06 06:00:24;;;;;;;14.05;9.63;;;;;;;29.48;46.39;97176.88;5024409;28;20065;-83
2022/08/06 06:02:51;;;;;;;18.27;8.00;;;;;;;28.77;48.15;97194.59;5030703;28;20118;-83
2022/08/06 06:05:17;;;;;;;11.95;7.65;;;;;;;29.07;48.27;97187.50;5031058;28;20048;-84
2022/08/06 06:07:43;;;;;;;12.48;7.25;;;;;;;29.14;47.75;97190.19;5049989;28;20021;-83
2022/08/06 06:10:09;;;;;;;16.55;7.25;;;;;;;29.25;47.34;97167.50;5049481;28;20504;-84
2022/08/06 06:12:35;;;;;;;12.13;7.70;;;;;;;30.54;44.73;97185.94;5035524;28;20025;-84
2022/08/06 06:15:02;;;;;;;11.82;7.28;;;;;;;31.03;43.58;97179.41;5068421;28;20054;-84
2022/08/06 06:17:51;;;;;;;10.13;7.47;;;;;;;33.28;39.66;97157.81;5030428;28;20025;-84
2022/08/06 06:20:41;;;;;;;11.90;7.68;;;;;;;35.36;36.27;97160.81;5016922;28;20057;-84
2022/08/06 06:23:36;;;;;;;16.63;10.02;;;;;;;37.69;32.50;97143.72;5043869;28;20089;-85
2022/08/06 06:26:17;;;;;;;21.58;10.40;;;;;;;38.74;30.80;97142.00;5020710;28;20045;-84
2022/08/06 06:28:58;;;;;;;15.15;9.85;;;;;;;39.24;29.96;97143.84;5022004;28;20064;-84
2022/08/06 06:31:47;;;;;;;15.60;9.75;;;;;;;40.13;28.67;97142.72;5031763;28;20037;-84
2022/08/06 06:34:41;;;;;;;24.30;9.30;;;;;;;39.27;29.84;97143.28;5037848;28;20473;-85
2022/08/06 06:37:16;;;;;;;19.65;8.52;;;;;;;39.34;28.79;97138.19;5044552;28;20033;-84
2022/08/06 06:39:57;;;;;;;12.32;8.60;;;;;;;35.95;33.14;97133.00;5019768;28;20069;-85
2022/08/06 06:42:28;;;;;;;13.02;9.00;;;;;;;34.84;34.73;97130.69;5044351;28;20037;-84
2022/08/06 06:45:17;;;;;;;14.68;9.25;;;;;;;32.02;39.31;97145.56;5040014;28;20484;-83
2022/08/06 06:48:14;;;;;;;19.17;7.80;;;;;;;32.26;39.26;97163.03;5057679;27;20030;-84
2022/08/06 06:50:45;;;;;;;12.35;8.10;;;;;;;34.01;36.66;97150.28;5026249;28;20065;-83
2022/08/06 06:53:12;;;;;;;11.63;7.10;;;;;;;35.76;34.05;97139.00;5035626;28;20036;-84
2022/08/06 06:55:44;;;;;;;14.75;7.65;;;;;;;37.02;32.48;97133.47;5040516;28;20048;-83
2022/08/06 06:58:36;;;;;;;13.82;8.07;;;;;;;37.40;31.92;97138.63;5048980;28;20115;-84
2022/08/06 07:01:06;;;;;;;16.27;8.00;;;;;;;37.45;31.67;97126.66;5045778;27;20033;-83
2022/08/06 07:03:34;;;;;;;13.15;7.25;;;;;;;37.18;31.85;97139.94;5030585;28;20040;-86
2022/08/06 07:06:01;;;;;;;11.60;7.53;;;;;;;37.03;31.77;97132.38;5046583;28;20037;-84
2022/08/06 07:08:28;;;;;;;13.38;6.93;;;;;;;37.44;31.41;97136.09;5031902;28;20048;-84
2022/08/06 07:10:55;;;;;;;10.07;6.80;;;;;;;39.03;29.64;97129.09;5033986;28;20490;-85
2022/08/06 07:13:21;;;;;;;16.55;7.10;;;;;;;38.88;29.94;97126.34;5041008;28;20029;-85
2022/08/06 07:15:47;;;;;;;14.68;6.85;;;;;;;36.87;31.78;97125.88;5015949;28;20025;-84
2022/08/06 07:18:14;;;;;;;9.43;6.10;;;;;;;35.18;34.80;97139.75;5029265;28;20052;-84
2022/08/06 07:20:40;;;;;;;9.32;5.13;;;;;;;35.08;34.32;97131.25;5032782;28;20017;-83
2022/08/06 07:23:08;;;;;;;9.85;6.10;;;;;;;36.69;32.03;97136.66;5036586;28;20124;-82
2022/08/06 07:25:43;;;;;;;10.32;5.50;;;;;;;38.11;29.80;97119.19;5041548;28;20484;-85
2022/08/06 07:28:10;;;;;;;10.85;5.65;;;;;;;37.80;30.23;97109.97;5035795;28;20036;-85
2022/08/06 07:30:36;;;;;;;8.48;5.53;;;;;;;38.95;28.72;97116.50;5016320;28;20378;-85
2022/08/06 07:33:03;;;;;;;14.73;6.25;;;;;;;39.51;28.40;97113.44;5027179;28;20033;-85
2022/08/06 07:35:31;;;;;;;13.32;5.53;;;;;;;40.75;27.90;97111.84;5023888;28;20132;-85
2022/08/06 07:38:01;;;;;;;7.63;4.95;;;;;;;40.27;27.11;97107.28;5046761;28;20039;-84
2022/08/06 07:40:44;;;;;;;10.43;5.00;;;;;;;41.11;26.17;97093.44;5021998;28;20041;-84
2022/08/06 07:43:15;;;;;;;7.25;4.88;;;;;;;39.89;26.90;97084.59;5007316;28;20409;-84
2022/08/06 07:45:40;;;;;;;;;;;;;;;38.53;28.27;97102.09;5045253;28;20037;-84
2022/08/06 07:48:10;;;;;;;5.75;4.35;;;;;;;38.58;27.35;97087.25;5055122;27;19919;-83
2022/08/06 07:50:35;;;;;;;8.07;4.63;;;;;;;39.34;26.98;97087.78;5037848;28;20060;-85
2022/08/06 07:53:01;;;;;;;5.10;4.57;;;;;;;39.87;26.17;97084.03;5029053;28;20033;-85
2022/08/06 07:55:27;;;;;;;7.43;5.03;;;;;;;39.40;27.32;97084.69;5030703;28;20025;-85
2022/08/06 07:57:55;;;;;;;6.75;4.57;;;;;;;38.62;27.40;97075.22;5032151;28;20480;-84
2022/08/06 08:00:22;;;;;;;6.13;4.60;;;;;;;39.10;27.11;97078.41;5039697;28;20465;-85
2022/08/06 08:06:17;;;;;;;9.70;4.78;;;;;;;40.04;26.36;97073.25;5022780;28;20055;-85
2022/08/06 08:08:19;;;;;;;10.23;4.63;;;;;;;42.04;23.85;97075.75;5035002;28;20068;-86
2022/08/06 08:10:44;;;;;;;5.75;4.32;;;;;;;41.59;24.31;97071.66;5022629;28;20044;-85
2022/08/06 08:13:10;;;;;;;7.50;4.20;;;;;;;41.54;24.67;97082.16;5036272;28;20025;-82
2022/08/06 08:15:37;;;;;;;6.38;4.10;;;;;;;39.85;26.01;97072.31;5037928;28;20453;-85
2022/08/06 08:18:03;;;;;;;7.03;4.20;;;;;;;39.50;26.92;97072.56;5010177;28;20033;-83
2022/08/06 08:20:30;;;;;;;7.70;3.80;;;;;;;41.52;24.71;97084.44;5013225;28;20597;-84
2022/08/06 08:22:56;;;;;;;6.63;4.25;;;;;;;43.06;23.40;97089.59;5021519;28;20108;-84
2022/08/06 08:25:21;;;;;;;4.32;3.90;;;;;;;43.79;22.54;97080.06;5030858;28;20068;-84
2022/08/06 08:27:47;;;;;;;12.00;4.38;;;;;;;43.22;22.87;97081.66;5032232;28;20029;-83
2022/08/06 08:30:13;;;;;;;6.07;4.20;;;;;;;43.85;23.03;97078.78;5027333;28;20115;-83
2022/08/06 08:32:38;;;;;;;4.78;3.90;;;;;;;43.65;22.39;97068.81;5023505;28;20034;-84
2022/08/06 08:35:04;;;;;;;3.92;3.53;;;;;;;42.24;23.70;97059.69;5035544;28;20040;-84
2022/08/06 08:37:30;;;;;;;8.48;3.67;;;;;;;44.43;22.18;97061.75;5034066;28;20521;-88
2022/08/06 08:39:55;;;;;;;5.70;3.90;;;;;;;45.05;21.30;97059.72;5008291;28;20033;-82
2022/08/06 08:42:33;;;;;;;3.58;3.28;;;;;;;45.84;20.11;97045.34;5041350;27;20492;-87
2022/08/06 08:45:00;;;;;;;4.45;3.45;;;;;;;47.05;19.25;97069.38;5019008;28;20081;-86
2022/08/06 08:47:27;;;;;;;6.78;4.50;;;;;;;47.22;19.55;97052.31;5037162;28;20433;-87
2022/08/06 08:49:59;;;;;;;5.55;3.63;;;;;;;47.42;19.20;97041.31;5016696;28;20026;-91
2022/08/06 08:52:32;;;;;;;6.03;4.10;;;;;;;46.22;20.76;97060.47;5027499;28;20032;-85
2022/08/06 08:55:01;;;;;;;3.90;3.47;;;;;;;46.16;20.22;97059.00;5043165;28;20048;-86
2022/08/06 08:57:28;;;;;;;3.67;3.30;;;;;;;46.26;19.80;97047.31;5030519;28;20110;-83
2022/08/06 08:59:54;;;;;;;8.52;3.60;;;;;;;46.02;19.93;97040.53;5018006;28;20440;-83
2022/08/06 09:02:19;;;;;;;4.55;3.50;;;;;;;44.90;20.86;97043.19;5031094;28;20033;-85
2022/08/06 09:04:45;;;;;;;6.40;3.80;;;;;;;44.42;21.52;97050.78;5011649;28;20106;-84
2022/08/06 09:07:11;;;;;;;14.57;4.53;;;;;;;45.00;21.01;97050.56;5006767;28;20492;-81
2022/08/06 09:09:38;;;;;;;3.70;3.38;;;;;;;45.67;20.44;97039.69;5021476;28;20492;-85
2022/08/06 09:12:04;;;;;;;4.63;3.70;;;;;;;46.52;20.09;97043.63;5019450;28;20037;-87
2022/08/06 09:14:30;;;;;;;4.10;3.40;;;;;;;45.22;20.33;97037.16;5027261;28;20108;-83
2022/08/06 09:16:58;;;;;;;4.47;3.33;;;;;;;46.03;20.17;97042.16;5025755;28;20112;-84
2022/08/06 09:19:25;;;;;;;4.53;3.38;;;;;;;44.44;21.41;97037.19;5008206;28;20441;-84
2022/08/06 09:21:51;;;;;;;6.15;3.53;;;;;;;43.29;22.08;97034.13;5019503;28;20072;-84
2022/08/06 09:24:17;;;;;;;9.40;3.50;;;;;;;43.32;21.82;97029.88;5011257;28;20038;-84
2022/08/06 09:29:55;;;;;;;3.80;3.47;;;;;;;45.83;19.48;97035.22;5022724;28;20029;-85
2022/08/06 09:32:44;;;;;;;3.60;3.08;;;;;;;45.27;20.02;97028.53;5013302;28;20029;-85
2022/08/06 09:35:39;;;;;;;5.30;3.28;;;;;;;45.46;19.38;97021.75;5013564;28;20025;-85
2022/08/06 09:38:06;;;;;;;4.38;3.42;;;;;;;47.17;18.46;97014.81;5008790;28;20068;-84
2022/08/06 09:41:07;;;;;;;6.22;3.55;;;;;;;44.86;19.46;97025.25;5037791;28;20037;-85
2022/08/06 09:43:33;;;;;;;3.47;3.20;;;;;;;40.81;22.12;96992.75;5029238;28;20033;-82
2022/08/06 09:45:58;;;;;;;7.25;3.72;;;;;;;39.74;23.54;96999.84;5034880;28;20036;-83
2022/08/06 09:48:24;;;;;;;4.65;3.80;;;;;;;39.45;24.35;97002.56;5041935;28;20408;-83
2022/08/06 09:50:50;;;;;;;4.68;3.70;;;;;;;38.81;25.33;97020.34;5019463;28;20082;-85
2022/08/06 09:53:25;;;;;;;4.15;3.47;;;;;;;38.05;25.53;96996.53;5040005;28;20029;-83
2022/08/06 09:55:53;;;;;;;3.67;3.38;;;;;;;38.37;26.12;97030.53;5036772;28;20048;-85
2022/08/06 09:58:38;;;;;;;8.80;3.42;;;;;;;38.35;25.90;97018.81;5047149;28;20182;-85
2022/08/06 10:01:21;;;;;;;4.57;3.28;;;;;;;38.17;26.21;97025.84;5015394;28;20041;-85
2022/08/06 10:03:47;;;;;;;3.80;3.42;;;;;;;37.94;27.12;97026.44;5032129;28;20052;-85
2022/08/06 10:06:15;;;;;;;3.60;3.30;;;;;;;37.28;27.70;97028.34;5010838;28;20093;-85
2022/08/06 10:08:43;;;;;;;3.50;3.20;;;;;;;37.11;27.90;97033.34;5019465;28;20037;-83
2022/08/06 10:11:09;;;;;;;6.10;3.40;;;;;;;37.37;27.62;97033.09;5036502;28;20021;-82
2022/08/06 10:13:35;;;;;;;3.85;3.45;;;;;;;37.08;28.29;97033.88;5023461;28;20098;-83
2022/08/06 10:16:17;;;;;;;5.13;3.40;;;;;;;39.46;25.36;97021.91;5019616;28;20072;-85
2022/08/06 10:18:48;;;;;;;6.18;4.18;;;;;;;42.19;22.34;97017.56;5015292;28;20037;-84
2022/08/06 10:21:22;;;;;;;5.90;3.70;;;;;;;43.33;21.36;97018.25;5018172;28;20740;-85
2022/08/06 10:23:52;;;;;;;9.82;3.60;;;;;;;42.62;21.59;97021.78;5023656;28;20041;-84
2022/08/06 10:26:57;;;;;;;9.48;3.53;;;;;;;40.71;22.43;96981.66;5030530;28;20032;-84
2022/08/06 10:29:26;;;;;;;5.00;3.60;;;;;;;40.18;23.84;96999.72;5031990;28;20574;-84
2022/08/06 10:31:53;;;;;;;9.27;3.75;;;;;;;38.97;25.57;97015.50;5038907;28;20506;-84
2022/08/06 10:34:24;;;;;;;8.02;4.28;;;;;;;37.89;26.25;97026.41;5041431;28;20029;-85
2022/08/06 10:37:02;;;;;;;10.18;4.43;;;;;;;37.06;26.89;97019.38;5023002;28;20121;-87
2022/08/06 10:39:36;;;;;;;5.72;4.38;;;;;;;36.75;27.46;97010.06;5037999;28;20037;-86
2022/08/06 10:42:03;;;;;;;6.95;4.10;;;;;;;36.51;27.50;97006.91;5030412;28;20089;-85
2022/08/06 10:44:28;;;;;;;5.38;4.22;;;;;;;36.40;28.40;97017.16;5042650;28;20108;-86
2022/08/06 10:46:54;;;;;;;6.25;4.13;;;;;;;36.81;27.80;97000.59;5016734;28;20456;-86
2022/08/06 10:49:20;;;;;;;6.95;4.45;;;;;;;37.53;27.15;97000.50;5036060;28;20393;-83
2022/08/06 10:51:49;;;;;;;12.98;6.88;;;;;;;38.19;26.34;97000.38;5040815;28;20040;-84
2022/08/06 10:54:15;;;;;;;12.38;5.75;;;;;;;40.20;24.61;97001.06;5007391;28;20124;-84
2022/08/06 10:56:41;;;;;;;6.35;3.70;;;;;;;40.63;23.51;96990.75;5011199;28;20032;-82
2022/08/06 10:59:07;;;;;;;9.05;3.55;;;;;;;41.49;22.74;96979.13;5038492;28;20033;-85
2022/08/06 11:01:53;;;;;;;4.72;4.00;;;;;;;43.58;21.29;96985.84;5025470;28;20077;-84
2022/08/06 11:04:56;;;;;;;9.15;4.20;;;;;;;46.45;18.80;96992.34;5033614;28;20048;-83
2022/08/06 11:07:59;;;;;;;4.05;3.65;;;;;;;46.96;18.21;96996.91;5031100;28;20082;-83
2022/08/06 11:10:47;;;;;;;8.20;4.10;;;;;;;48.33;17.18;96978.75;5033117;28;20112;-83
2022/08/06 11:13:50;;;;;;;4.47;4.00;;;;;;;47.40;17.81;96989.78;5016422;28;20026;-82
2022/08/06 11:16:25;;;;;;;7.18;3.80;;;;;;;48.38;17.09;96987.84;5036186;28;20416;-83
2022/08/06 11:19:10;;;;;;;10.18;3.58;;;;;;;49.49;16.20;96986.66;5036332;28;20024;-85
2022/08/06 11:21:43;;;;;;;6.28;3.35;;;;;;;50.28;15.68;96980.84;5031230;28;20519;-86
2022/08/06 11:24:09;;;;;;;3.92;3.60;;;;;;;48.79;16.76;96974.66;5029080;28;20037;-85
2022/08/06 11:26:40;;;;;;;4.35;3.60;;;;;;;47.64;17.37;96984.25;5037314;28;20037;-84
2022/08/06 11:29:10;;;;;;;5.68;4.18;;;;;;;46.81;17.79;96979.34;5034444;28;20067;-84
2022/08/06 11:31:49;;;;;;;;;;;;;;;47.14;17.91;96982.28;5032563;28;20022;-84
2022/08/06 11:34:17;;;;;;;3.97;3.58;;;;;;;45.56;18.53;96959.22;5046916;28;20121;-83
2022/08/06 11:36:58;;;;;;;3.90;3.60;;;;;;;45.16;18.95;96975.50;5019780;28;20560;-82
2022/08/06 11:39:26;;;;;;;7.18;4.00;;;;;;;43.79;20.42;96958.81;5103588;27;20040;-83
2022/08/06 11:42:01;;;;;;;5.50;3.90;;;;;;;42.79;21.40;96967.69;5036144;28;20477;-83
2022/08/06 11:44:28;;;;;;;5.70;3.92;;;;;;;41.07;22.80;96968.00;5015586;28;20033;-83
2022/08/06 11:47:16;;;;;;;9.32;4.40;;;;;;;39.32;24.39;96970.47;5021082;28;20118;-83
2022/08/06 11:49:43;;;;;;;7.90;4.28;;;;;;;37.96;25.63;96979.50;5041519;28;20029;-83
2022/08/06 11:52:09;;;;;;;7.35;4.40;;;;;;;37.12;26.82;96970.84;5035465;28;20021;-84